Flugplatz Hasselt Kiewit (EBZH)

Hier findest Du alle Informationen zum Flugplatz Hasselt Kiewit (EBZH).

Informationen für Piloten zum Flugplatz Hasselt Kiewit

Hier findest Du alle relevanten Informationen, die Du als Pilot benötigst, um Hasselt Kiewit anzufliegen.

Flugplatz: Hasselt Kiewit ICAO-Code: EBZH
Frequenz Turm: 118,325 Mhz GAFOR Gebiet: -
Frequenz Ground: 118,325 Mhz Mogas: nein
Platzrunde: N 1200 ft Landegebühr: -
Platzhöhe: Sunrise: 03:21 Uhr UTC
Pisten: 09/27 - 600 m x 30 m, GRAS Sunset: 19:56 Uhr UTC

Mitglieder, die in Hasselt Kiewit fliegen

Flugwetter am Flugplatz Hasselt Kiewit

Die METAR Information stammen aus EDLN (83.97 km entfernt).

METAR Code:
2019/05/29 18:20
EDLN 291820Z 21003KT 160V250 CAVOK 19/06 Q1021

Flugschulen am Flugplatz Hasselt Kiewit

Am Flugplatz Hasselt Kiewit gibt es leider keine Flugschule.

Benachbarte Flugplätze und Flugschulen

Es gibt 5 weitere Flugplätze in einem Umkreis von 50 km um den Flugplatz Hasselt Kiewit.

Jetzt anmelden

Passwort vergessen

Umfrage Archiv

Welche Art von Theorieunterricht würde Dir am ehesten zusagen?

Frontalunterricht
64.4 %
Selbststudium
35.6 %
Stimmen: 376 | Diskussion
Anzeige: Roland Aircraft
Statistik Alle Mitglieder

Aktuell sind 46 Besucher online, davon 2 Mitglieder und 44 Gäste.


Mitglieder online:
Heli  usul 

Anzeige: VFR Sprechfunk Simulator


Anzeige: Pocket FMS